Terminal Aerodrome Forecast
Issued by NWS Buffalo, NY

Home | Current Version | Previous Version | Text Only | Print | Product List | Glossary On
Versions: 1 2 3 4 5 6 7 8 9 10 11 12 13 14 15 16 17 18 19 20 21 22 23 24 25 26 27 28 29 30 31 32 33 34 35 36 37 38 39 40 41 42 43 44 45 46 47 48 49 50
000
FTUS41 KBUF 160520
TAFROC
TAF
KROC 160520Z 1606/1706 05004KT 4SM -RA BR OVC004
     FM160900 05005KT 2SM -DZ BR OVC004
     FM161400 05007KT P6SM OVC007
     FM161700 04008KT P6SM BKN015
     FM162000 04007KT P6SM SCT025 BKN120=

USA.gov is the U.S. government's official web portal to all federal, state and local government web resources and services.